Moscow, Idaho
Current Conditions -  °F | °C
As of 5:53 AM on Thursday 27 Nov 2014 (Local Time) from KPUW Reporting Station
Broken Clouds Broken Clouds  
Wind Chill: 44°   Ceiling: 6500
Heat Index: 47°   Visibility: 10mi
Dew Point: 38°   Wind: 7mph
Humidity: 71%   Direction: 110°ESE
Pressure: 29.96"   Gusts: NA
Location:  46.73°N, 117°W
Report Text: KPUW 271353Z AUTO 11006KT 10SM BKN065 BKN120 08/03 A2996 RMK AO2 SLP151 T00830033
Loading
Personal Weather Stations






























Interactive Weather Map New forecast layout! Learn more

10-Day Weather Forecast

Advertisements
Track Severe Weather on mobile